< < Back
Terminal Aerodrome Forecast


Current Version              Previous Versions:   1  2  3  4  5  6  7  8  9  

Terminal Aerodrome Forecast

688
FTUS42 KCHS 250525
TAFCHS
TAF
KCHS 250525Z 2506/2606 VRB03KT P6SM FEW050 SCT250
     FM251000 00000KT 4SM BR SCT002
     FM251400 06005KT P6SM FEW035
     FM251800 09007KT P6SM SCT040=

Latest METAR

227
SAUS80 KWBC 252200
MTRCHS
METAR KCHS 252156Z 10009KT 10SM FEW025 BKN140 28/21 A3003 RMK AO2 SLP168
T02830211


USA.gov is the U.S. government's official web portal to all federal, state and local government web resources and services.